Time;durP1;ratioP1;P1;durP2;ratioP2;P2;SDS_P1;SDS_P2;PMS_P1;PMS_P2;Temp;Humidity;BMP_temperature;BMP_pressure;BME280_temperature;BME280_humidity;BME280_pressure;Samples;Min_cycle;Max_cycle;Signal;HPM_P1;HPM_P2
2022/05/19 00:01:01;;;;;;;2.47;1.83;;;18.00;99.40;;;;;;5136672;27;20187;-66
2022/05/19 00:03:28;;;;;;;3.33;2.20;;;17.90;99.20;;;;;;5136235;27;20170;-68
2022/05/19 00:05:54;;;;;;;5.57;2.17;;;18.00;99.50;;;;;;5131323;27;20165;-66
2022/05/19 00:08:20;;;;;;;3.22;2.20;;;17.90;98.40;;;;;;5114948;28;20629;-66
2022/05/19 00:10:46;;;;;;;2.10;1.90;;;17.90;99.60;;;;;;5115916;28;20736;-66
2022/05/19 00:13:12;;;;;;;3.10;2.00;;;18.00;99.70;;;;;;5115136;28;20617;-67
2022/05/19 00:15:37;;;;;;;2.13;1.92;;;17.90;99.90;;;;;;5121674;27;20181;-66
2022/05/19 00:18:03;;;;;;;2.38;2.00;;;17.90;99.90;;;;;;5133179;27;20243;-66
2022/05/19 00:20:29;;;;;;;3.92;2.20;;;17.90;99.90;;;;;;5115950;28;20178;-68
2022/05/19 00:22:55;;;;;;;3.38;1.77;;;17.90;99.90;;;;;;5113224;27;20249;-67
2022/05/19 00:25:21;;;;;;;2.42;1.95;;;17.90;99.30;;;;;;5115063;28;20173;-67
2022/05/19 00:27:46;;;;;;;2.47;2.00;;;17.80;99.10;;;;;;5119889;27;20222;-66
2022/05/19 00:30:13;;;;;;;5.22;2.00;;;17.90;99.10;;;;;;5123659;27;20233;-66
2022/05/19 00:32:38;;;;;;;2.78;2.22;;;17.80;98.90;;;;;;5108937;28;20250;-67
2022/05/19 00:35:04;;;;;;;6.47;1.83;;;17.70;98.80;;;;;;5109542;28;20224;-66
2022/05/19 00:37:30;;;;;;;2.75;1.90;;;17.70;99.90;;;;;;5124923;28;20530;-67
2022/05/19 00:39:55;;;;;;;2.33;1.73;;;17.60;99.90;;;;;;5117490;28;20733;-66
2022/05/19 00:45:06;;;;;;;2.00;1.80;;;17.60;99.90;;;;;;5114492;28;20157;-67
2022/05/19 00:47:43;;;;;;;2.38;1.92;;;17.70;99.90;;;;;;5114781;28;20165;-65
2022/05/19 00:50:27;;;;;;;3.03;1.77;;;17.70;99.90;;;;;;5115253;28;20189;-66
2022/05/19 00:53:09;;;;;;;6.80;2.03;;;17.60;99.90;;;;;;5115098;28;20215;-66
2022/05/19 00:55:43;;;;;;;2.42;1.80;;;17.50;99.90;;;;;;5115355;27;20190;-66
2022/05/19 00:58:17;;;;;;;2.95;1.70;;;17.40;99.90;;;;;;5134491;27;20196;-67
2022/05/19 01:00:45;;;;;;;2.20;1.73;;;17.40;99.90;;;;;;5125029;28;20470;-67
2022/05/19 01:03:14;;;;;;;3.13;1.95;;;17.40;99.90;;;;;;5123628;28;20177;-66
2022/05/19 01:05:46;;;;;;;4.43;2.05;;;17.40;99.90;;;;;;5117341;28;20238;-66
2022/05/19 01:08:31;;;;;;;2.70;1.88;;;17.40;99.90;;;;;;5122856;28;20192;-67
2022/05/19 01:10:57;;;;;;;3.47;2.00;;;17.40;99.90;;;;;;5135423;28;20580;-67
2022/05/19 01:13:29;;;;;;;1.90;1.80;;;17.20;99.90;;;;;;5116742;28;20178;-67
2022/05/19 01:15:55;;;;;;;2.15;1.92;;;17.20;99.90;;;;;;5113445;28;20188;-66
2022/05/19 01:18:23;;;;;;;2.13;1.92;;;17.30;99.90;;;;;;5115055;28;20285;-66
2022/05/19 01:20:49;;;;;;;2.05;1.70;;;17.20;99.90;;;;;;5124595;28;20477;-66
2022/05/19 01:23:48;;;;;;;2.42;1.98;;;17.20;99.90;;;;;;5105113;28;20634;-67
2022/05/19 01:26:17;;;;;;;2.17;1.73;;;17.20;99.90;;;;;;5117790;28;20204;-66
2022/05/19 01:28:44;;;;;;;2.30;2.10;;;17.10;99.90;;;;;;5130321;28;20173;-67
2022/05/19 01:31:38;;;;;;;2.00;1.80;;;17.20;99.90;;;;;;5127897;28;20239;-65
2022/05/19 01:34:05;;;;;;;2.10;1.90;;;17.10;99.90;;;;;;5134551;28;20185;-66
2022/05/19 01:36:31;;;;;;;5.80;1.80;;;17.10;99.90;;;;;;5125895;28;20204;-67
2022/05/19 01:39:03;;;;;;;2.53;1.67;;;17.00;99.90;;;;;;5123496;27;20193;-68
2022/05/19 01:41:48;;;;;;;2.00;1.80;;;17.00;99.90;;;;;;5129110;28;20185;-66
2022/05/19 01:44:25;;;;;;;2.55;1.73;;;16.90;99.90;;;;;;5119681;28;20212;-66
2022/05/19 01:47:18;;;;;;;3.63;2.22;;;16.90;99.90;;;;;;5122166;27;20189;-65
2022/05/19 01:49:52;;;;;;;2.47;2.00;;;16.90;99.90;;;;;;5122065;28;20605;-66
2022/05/19 01:52:55;;;;;;;3.67;2.00;;;16.90;99.90;;;;;;5121962;28;20180;-66
2022/05/19 01:55:41;;;;;;;2.17;1.80;;;16.90;99.90;;;;;;5131274;27;20200;-67
2022/05/19 01:58:28;;;;;;;1.88;1.77;;;16.80;99.90;;;;;;5132036;28;20247;-67
2022/05/19 02:00:57;;;;;;;6.20;2.03;;;16.80;99.90;;;;;;5127395;28;20174;-65
2022/05/19 02:04:00;;;;;;;1.87;1.60;;;16.70;99.90;;;;;;5122640;28;20189;-67
2022/05/19 02:06:37;;;;;;;1.88;1.55;;;16.90;99.90;;;;;;5121031;28;20371;-66
2022/05/19 02:09:08;;;;;;;5.25;1.92;;;16.80;99.90;;;;;;5124287;27;20241;-67
2022/05/19 02:11:39;;;;;;;2.10;1.83;;;16.80;99.90;;;;;;5141119;27;20185;-67
2022/05/19 02:14:13;;;;;;;3.50;2.00;;;16.70;99.90;;;;;;5124879;27;20169;-65
2022/05/19 02:16:41;;;;;;;2.45;1.80;;;16.70;99.90;;;;;;5123045;27;20221;-67
2022/05/19 02:19:10;;;;;;;3.58;2.03;;;16.60;99.90;;;;;;5127992;27;20698;-66
2022/05/19 02:21:36;;;;;;;2.95;1.85;;;16.60;99.90;;;;;;5123944;27;20177;-67
2022/05/19 02:24:03;;;;;;;1.90;1.70;;;16.70;99.90;;;;;;5122908;27;20530;-66
2022/05/19 02:26:33;;;;;;;3.58;1.92;;;16.70;99.90;;;;;;5104052;27;20197;-67
2022/05/19 02:29:05;;;;;;;2.10;1.90;;;16.60;99.90;;;;;;5125781;27;20712;-67
2022/05/19 02:31:30;;;;;;;3.38;1.77;;;16.60;99.90;;;;;;5122012;27;20181;-67
2022/05/19 02:33:56;;;;;;;2.45;1.73;;;16.50;99.90;;;;;;5124253;27;20181;-67
2022/05/19 02:36:22;;;;;;;2.92;1.80;;;16.60;99.90;;;;;;5125993;27;20561;-66
2022/05/19 02:38:48;;;;;;;2.13;1.80;;;16.50;99.90;;;;;;5126392;27;20200;-65
2022/05/19 02:41:13;;;;;;;2.83;2.00;;;16.50;99.90;;;;;;5132449;27;20382;-68
2022/05/19 02:43:39;;;;;;;3.50;2.00;;;16.50;99.90;;;;;;5126039;27;20550;-67
2022/05/19 02:46:05;;;;;;;3.70;2.45;;;16.50;99.90;;;;;;5124878;27;20182;-66
2022/05/19 02:48:32;;;;;;;3.15;2.00;;;16.50;99.90;;;;;;5122480;27;20178;-66
2022/05/19 02:50:59;;;;;;;4.82;2.10;;;16.40;99.90;;;;;;5122889;27;20205;-67
2022/05/19 02:53:26;;;;;;;1.85;1.67;;;16.50;99.90;;;;;;5122405;27;20189;-66
2022/05/19 02:55:51;;;;;;;5.20;2.13;;;16.50;99.90;;;;;;5123423;27;20190;-66
2022/05/19 02:58:17;;;;;;;2.10;1.90;;;16.40;99.90;;;;;;5123096;27;20600;-67
2022/05/19 03:00:45;;;;;;;3.70;1.98;;;16.30;99.90;;;;;;5126022;27;20178;-67
2022/05/19 03:03:11;;;;;;;2.63;2.03;;;16.20;99.90;;;;;;5127843;27;20231;-66
2022/05/19 03:05:37;;;;;;;3.47;1.97;;;16.10;99.90;;;;;;5136274;27;20190;-66
2022/05/19 03:08:04;;;;;;;3.15;2.20;;;16.20;99.90;;;;;;5135073;27;20549;-68
2022/05/19 03:10:29;;;;;;;1.80;1.70;;;16.20;99.90;;;;;;5122673;27;20170;-67
2022/05/19 03:12:56;;;;;;;2.40;2.08;;;16.20;99.90;;;;;;5123231;27;20238;-65
2022/05/19 03:15:22;;;;;;;6.65;2.60;;;16.20;99.90;;;;;;5124163;27;20185;-67
2022/05/19 03:17:47;;;;;;;7.00;2.23;;;16.10;99.90;;;;;;5122605;27;20233;-65
2022/05/19 03:20:14;;;;;;;3.00;2.20;;;16.00;99.90;;;;;;5121918;27;20594;-66
2022/05/19 03:22:40;;;;;;;3.20;2.23;;;15.90;99.90;;;;;;5122527;27;20169;-66
2022/05/19 03:25:06;;;;;;;4.97;2.40;;;16.00;99.90;;;;;;5122138;27;20189;-66
2022/05/19 03:27:34;;;;;;;2.27;2.07;;;16.00;99.90;;;;;;5122095;27;20205;-66
2022/05/19 03:29:59;;;;;;;3.33;2.47;;;16.00;99.90;;;;;;5121591;27;20648;-67
2022/05/19 03:32:25;;;;;;;3.55;2.47;;;16.00;99.90;;;;;;5122376;27;20178;-65
2022/05/19 03:34:50;;;;;;;2.73;2.10;;;16.00;99.90;;;;;;5104671;27;20227;-66
2022/05/19 03:37:16;;;;;;;3.70;1.88;;;16.00;99.90;;;;;;5121787;27;20197;-67
2022/05/19 03:39:42;;;;;;;3.10;1.90;;;15.90;99.90;;;;;;5123226;27;20193;-65
2022/05/19 03:42:08;;;;;;;5.40;2.53;;;15.90;99.90;;;;;;5123015;27;20186;-65
2022/05/19 03:44:35;;;;;;;3.67;2.13;;;15.80;99.90;;;;;;5121902;27;20683;-65
2022/05/19 03:47:01;;;;;;;4.13;2.20;;;15.70;99.90;;;;;;5122763;27;20200;-65
2022/05/19 03:49:27;;;;;;;3.20;2.30;;;15.80;99.90;;;;;;5121884;27;20268;-66
2022/05/19 03:51:52;;;;;;;2.67;2.20;;;15.80;99.90;;;;;;5120949;27;20253;-67
2022/05/19 03:54:18;;;;;;;2.77;2.13;;;15.80;99.90;;;;;;5130100;27;20186;-65
2022/05/19 03:56:44;;;;;;;1.97;1.87;;;15.90;99.90;;;;;;5134349;27;20285;-67
2022/05/19 03:59:09;;;;;;;3.20;1.93;;;16.00;99.90;;;;;;5134501;27;20186;-68
2022/05/19 04:01:35;;;;;;;4.90;2.10;;;16.00;99.90;;;;;;5129318;27;20174;-68
2022/05/19 04:04:01;;;;;;;2.80;2.20;;;15.90;99.90;;;;;;5125100;27;20757;-67
2022/05/19 04:06:27;;;;;;;2.93;2.20;;;15.90;99.90;;;;;;5122363;27;20712;-66
2022/05/19 04:08:52;;;;;;;2.30;2.10;;;15.90;99.90;;;;;;5103483;27;20177;-65
2022/05/19 04:11:19;;;;;;;4.17;2.20;;;16.00;99.90;;;;;;5122509;27;20215;-68
2022/05/19 04:13:44;;;;;;;2.40;2.20;;;16.00;99.90;;;;;;5121741;27;20234;-67
2022/05/19 04:16:10;;;;;;;4.40;2.50;;;16.10;99.90;;;;;;5121675;27;20706;-65
2022/05/19 04:18:37;;;;;;;2.83;2.27;;;16.10;99.90;;;;;;5121500;27;20178;-65
2022/05/19 04:21:03;;;;;;;3.07;2.30;;;16.10;99.90;;;;;;5121113;27;20201;-67
2022/05/19 04:23:29;;;;;;;2.47;2.27;;;16.10;99.90;;;;;;5123700;27;20185;-67
2022/05/19 04:25:56;;;;;;;3.97;2.87;;;16.10;99.90;;;;;;5139485;27;20185;-66
2022/05/19 04:28:21;;;;;;;3.33;2.53;;;16.10;99.90;;;;;;5129133;27;20186;-67
2022/05/19 04:30:47;;;;;;;2.97;2.20;;;16.00;99.90;;;;;;5120971;27;20234;-65
2022/05/19 04:33:13;;;;;;;2.90;2.57;;;16.00;99.90;;;;;;5120673;27;20228;-67
2022/05/19 04:35:39;;;;;;;3.87;2.07;;;16.10;99.90;;;;;;5121000;27;20226;-65
2022/05/19 04:38:13;;;;;;;2.92;2.63;;;16.20;99.90;;;;;;5121309;27;20284;-65
2022/05/19 04:40:41;;;;;;;3.00;2.37;;;16.10;99.90;;;;;;5120685;27;20185;-66
2022/05/19 04:43:08;;;;;;;3.87;2.60;;;16.30;99.90;;;;;;5121759;27;20169;-65
2022/05/19 04:45:33;;;;;;;3.57;2.40;;;16.30;99.90;;;;;;5121844;27;20275;-66
2022/05/19 04:47:59;;;;;;;2.20;2.00;;;16.20;99.90;;;;;;5119642;27;20177;-64
2022/05/19 04:50:25;;;;;;;3.63;2.60;;;16.40;99.90;;;;;;5120629;27;20227;-65
2022/05/19 04:52:51;;;;;;;3.70;2.40;;;16.40;99.90;;;;;;5121021;27;20222;-66
2022/05/19 04:55:16;;;;;;;4.80;2.47;;;16.30;99.90;;;;;;5121259;27;20192;-66
2022/05/19 04:57:44;;;;;;;2.63;2.10;;;16.50;99.90;;;;;;5120020;27;20216;-67
2022/05/19 05:00:12;;;;;;;2.90;2.13;;;16.50;99.90;;;;;;5121197;28;20284;-65
2022/05/19 05:02:39;;;;;;;2.63;2.10;;;16.60;99.90;;;;;;5129221;27;20231;-65
2022/05/19 05:05:05;;;;;;;2.87;2.57;;;16.70;99.90;;;;;;5120887;27;20182;-65
2022/05/19 05:07:31;;;;;;;2.97;2.42;;;16.70;99.90;;;;;;5121093;28;20235;-66
2022/05/19 05:09:57;;;;;;;4.03;2.30;;;16.80;99.90;;;;;;5121221;28;20181;-66
2022/05/19 05:12:23;;;;;;;4.00;2.47;;;16.80;99.90;;;;;;5103045;28;20539;-66
2022/05/19 05:14:48;;;;;;;6.60;2.30;;;16.80;99.90;;;;;;5121585;27;20180;-66
2022/05/19 05:17:15;;;;;;;3.95;2.30;;;16.90;99.90;;;;;;5142071;27;20209;-66
2022/05/19 05:19:41;;;;;;;4.25;2.13;;;16.90;99.90;;;;;;5132385;28;20231;-66
2022/05/19 05:22:07;;;;;;;2.63;2.28;;;17.00;99.90;;;;;;5132996;28;20173;-67
2022/05/19 05:24:33;;;;;;;5.13;2.28;;;17.10;99.90;;;;;;5127092;28;20248;-66
2022/05/19 05:26:58;;;;;;;5.43;2.23;;;17.00;99.90;;;;;;5127099;28;20193;-66
2022/05/19 05:29:24;;;;;;;6.47;2.35;;;17.10;99.90;;;;;;5130421;28;20208;-68
2022/05/19 05:31:50;;;;;;;5.63;2.50;;;17.10;99.90;;;;;;5134534;28;20165;-66
2022/05/19 05:34:16;;;;;;;4.07;2.30;;;17.20;99.90;;;;;;5132848;28;20188;-65
2022/05/19 05:36:41;;;;;;;4.05;2.00;;;17.20;99.90;;;;;;5130774;28;20208;-66
2022/05/19 05:39:07;;;;;;;2.35;2.10;;;17.40;99.90;;;;;;5121626;27;20209;-66
2022/05/19 05:41:33;;;;;;;2.90;2.47;;;17.40;99.90;;;;;;5120249;28;20536;-65
2022/05/19 05:43:58;;;;;;;5.82;2.20;;;17.50;99.90;;;;;;5124348;27;20619;-65
2022/05/19 05:46:24;;;;;;;7.43;3.83;;;17.50;99.90;;;;;;5124178;27;20189;-66
2022/05/19 05:48:51;;;;;;;3.08;2.20;;;17.60;99.90;;;;;;5124163;27;20176;-67
2022/05/19 05:51:16;;;;;;;7.38;2.35;;;17.60;99.90;;;;;;5141420;27;20234;-67
2022/05/19 05:53:44;;;;;;;7.55;2.95;;;17.60;99.90;;;;;;5125019;27;20181;-66
2022/05/19 05:56:13;;;;;;;3.80;2.50;;;17.80;99.90;;;;;;5135648;27;20203;-66
2022/05/19 05:58:40;;;;;;;4.40;2.85;;;17.90;99.90;;;;;;5138093;27;20198;-66
2022/05/19 06:01:08;;;;;;;2.88;2.03;;;18.10;99.90;;;;;;5136048;27;20177;-65
2022/05/19 06:03:34;;;;;;;6.95;2.58;;;18.20;99.90;;;;;;5139987;27;20197;-65
2022/05/19 06:06:01;;;;;;;2.75;2.05;;;18.30;99.90;;;;;;5121227;27;20313;-64
2022/05/19 06:08:27;;;;;;;8.73;2.00;;;18.40;99.90;;;;;;5125374;27;20234;-68
2022/05/19 06:10:53;;;;;;;4.18;2.33;;;18.30;99.90;;;;;;5124530;27;20181;-68
2022/05/19 06:13:21;;;;;;;3.03;1.80;;;18.40;99.90;;;;;;5129742;27;20596;-66
2022/05/19 06:15:47;;;;;;;5.05;2.10;;;18.60;99.90;;;;;;5131471;27;20273;-67
2022/05/19 06:18:13;;;;;;;6.40;1.85;;;18.70;99.90;;;;;;5124252;27;20201;-67
2022/05/19 06:20:39;;;;;;;4.07;2.42;;;18.70;99.90;;;;;;5124057;27;20269;-65
2022/05/19 06:23:06;;;;;;;4.32;2.08;;;18.80;99.90;;;;;;5123450;27;20174;-66
2022/05/19 06:25:32;;;;;;;2.85;2.00;;;18.90;99.90;;;;;;5122748;27;20709;-65
2022/05/19 06:27:59;;;;;;;5.25;2.17;;;19.00;99.90;;;;;;5123892;27;20213;-66
2022/05/19 06:30:26;;;;;;;2.40;2.05;;;19.00;99.90;;;;;;5124258;27;20166;-66
2022/05/19 06:32:52;;;;;;;2.53;2.03;;;19.10;99.90;;;;;;5139096;27;20544;-65
2022/05/19 06:35:25;;;;;;;3.83;1.90;;;19.10;98.40;;;;;;5123258;27;20185;-65
2022/05/19 06:37:51;;;;;;;2.53;2.00;;;19.30;97.90;;;;;;5124532;27;20209;-66
2022/05/19 06:40:17;;;;;;;2.72;2.15;;;19.40;98.60;;;;;;5124302;27;20199;-65
2022/05/19 06:42:45;;;;;;;2.58;1.73;;;19.50;97.30;;;;;;5105373;27;20623;-65
2022/05/19 06:45:13;;;;;;;4.82;2.05;;;19.60;96.40;;;;;;5122384;27;20190;-65
2022/05/19 06:47:39;;;;;;;2.17;1.88;;;19.70;93.50;;;;;;5125407;27;20510;-65
2022/05/19 06:50:08;;;;;;;4.60;2.10;;;19.80;94.80;;;;;;5125232;27;20178;-66
2022/05/19 06:52:40;;;;;;;3.15;2.00;;;20.00;94.20;;;;;;5123085;27;20534;-66
2022/05/19 06:55:06;;;;;;;3.53;2.03;;;20.00;91.20;;;;;;5121751;27;20226;-66
2022/05/19 06:57:31;;;;;;;3.97;1.77;;;20.10;91.10;;;;;;5123821;27;20247;-64
2022/05/19 06:59:57;;;;;;;3.00;1.70;;;20.20;90.60;;;;;;5124299;27;20613;-68
2022/05/19 07:02:25;;;;;;;2.35;2.08;;;20.40;89.40;;;;;;5114160;27;20282;-65
2022/05/19 07:04:51;;;;;;;2.38;1.70;;;20.40;84.50;;;;;;5124382;27;20625;-65
2022/05/19 07:07:17;;;;;;;5.47;1.83;;;20.50;85.20;;;;;;5123093;27;20233;-66
2022/05/19 07:09:44;;;;;;;3.28;1.98;;;20.70;82.20;;;;;;5123965;27;20186;-65
2022/05/19 07:12:11;;;;;;;2.28;2.08;;;20.80;80.10;;;;;;5123320;27;20205;-67
2022/05/19 07:14:38;;;;;;;5.03;1.77;;;20.90;79.90;;;;;;5124056;27;20261;-68
2022/05/19 07:17:05;;;;;;;2.75;1.75;;;21.10;79.60;;;;;;5130452;27;20208;-65
2022/05/19 07:22:22;;;;;;;5.68;1.98;;;21.20;74.90;;;;;;5121547;27;20173;-65
2022/05/19 07:24:48;;;;;;;3.08;2.00;;;21.20;72.90;;;;;;5124020;27;20512;-65
2022/05/19 07:27:14;;;;;;;3.35;1.60;;;21.30;73.10;;;;;;5122925;27;20253;-65
2022/05/19 07:29:41;;;;;;;2.25;1.80;;;21.40;72.20;;;;;;5122347;27;20209;-66
2022/05/19 07:32:08;;;;;;;2.00;1.50;;;21.60;71.50;;;;;;5121618;27;20613;-66
2022/05/19 07:34:36;;;;;;;2.78;1.50;;;21.60;69.60;;;;;;5121692;27;20200;-65
2022/05/19 07:37:03;;;;;;;2.95;1.85;;;21.50;69.50;;;;;;5121349;27;20214;-66
2022/05/19 07:39:28;;;;;;;5.68;1.65;;;21.70;70.70;;;;;;5138318;27;20185;-67
2022/05/19 07:41:55;;;;;;;2.95;1.50;;;21.70;68.30;;;;;;5121136;27;20820;-65
2022/05/19 07:44:22;;;;;;;3.38;2.05;;;21.90;69.00;;;;;;5122029;27;20192;-65
2022/05/19 07:46:48;;;;;;;2.95;1.85;;;21.80;69.10;;;;;;5121569;27;20190;-66
2022/05/19 07:49:14;;;;;;;3.33;1.55;;;22.00;70.30;;;;;;5122253;27;20234;-65
2022/05/19 07:51:41;;;;;;;2.83;1.67;;;22.10;69.20;;;;;;5121989;27;20177;-65
2022/05/19 07:54:13;;;;;;;3.65;2.30;;;22.30;69.50;;;;;;5129072;27;20544;-66
2022/05/19 07:56:41;;;;;;;3.15;1.60;;;22.40;69.30;;;;;;5133403;27;20241;-66
2022/05/19 07:59:08;;;;;;;3.25;1.67;;;22.50;68.10;;;;;;5131663;27;20184;-65
2022/05/19 08:01:34;;;;;;;1.83;1.58;;;22.60;68.10;;;;;;5105507;28;20537;-67
2022/05/19 08:03:59;;;;;;;4.45;1.48;;;22.80;66.60;;;;;;5116930;27;20199;-65
2022/05/19 08:06:28;;;;;;;1.55;1.38;;;22.80;67.00;;;;;;5122434;27;20225;-65
2022/05/19 08:08:54;;;;;;;2.58;1.50;;;22.90;61.60;;;;;;5120794;27;20174;-69
2022/05/19 08:11:20;;;;;;;1.50;1.40;;;23.10;60.00;;;;;;5121333;27;20571;-66
2022/05/19 08:16:29;;;;;;;5.35;1.83;;;23.20;56.20;;;;;;5121242;27;20218;-66
2022/05/19 08:18:55;;;;;;;3.67;1.45;;;23.40;55.40;;;;;;5121478;27;20174;-66
2022/05/19 08:21:21;;;;;;;4.30;1.83;;;23.40;53.00;;;;;;5122676;27;20645;-67
2022/05/19 08:23:50;;;;;;;5.53;1.83;;;23.30;51.70;;;;;;5121307;27;20260;-65
2022/05/19 08:26:17;;;;;;;1.52;1.40;;;23.40;51.70;;;;;;5121003;27;20624;-64
2022/05/19 08:28:43;;;;;;;3.38;1.58;;;23.60;50.60;;;;;;5120665;27;20571;-68
2022/05/19 08:31:18;;;;;;;2.85;1.50;;;23.60;49.40;;;;;;5120693;27;20170;-65
2022/05/19 08:33:45;;;;;;;4.03;1.90;;;23.60;49.00;;;;;;5120460;27;20540;-66
2022/05/19 08:36:12;;;;;;;2.13;1.45;;;23.80;48.70;;;;;;5120783;27;20599;-65
2022/05/19 08:38:39;;;;;;;4.07;1.50;;;23.60;47.20;;;;;;5121558;27;20299;-67
2022/05/19 08:41:11;;;;;;;6.60;1.85;;;23.70;47.60;;;;;;5120911;27;20192;-64
2022/05/19 08:43:48;;;;;;;3.50;1.30;;;23.80;47.30;;;;;;5120020;27;20178;-65
2022/05/19 08:46:33;;;;;;;6.90;1.65;;;23.80;47.00;;;;;;5121201;27;20208;-66
2022/05/19 08:49:27;;;;;;;3.08;1.08;;;23.90;47.50;;;;;;5137367;27;20224;-67
2022/05/19 08:52:11;;;;;;;2.47;1.30;;;23.90;46.20;;;;;;5094504;27;20201;-67
2022/05/19 08:54:40;;;;;;;2.67;1.60;;;24.00;46.30;;;;;;5120331;27;20181;-67
2022/05/19 08:57:17;;;;;;;4.53;1.65;;;24.40;47.20;;;;;;5120053;27;20219;-67
2022/05/19 09:00:05;;;;;;;2.17;1.50;;;24.40;46.20;;;;;;5120149;27;20244;-68
2022/05/19 09:02:47;;;;;;;2.17;1.58;;;24.30;44.80;;;;;;5112827;28;20208;-66
2022/05/19 09:05:32;;;;;;;2.40;1.50;;;24.50;45.20;;;;;;5121193;28;20205;-65
2022/05/19 09:08:18;;;;;;;5.50;1.45;;;24.30;44.70;;;;;;5121948;28;20319;-68
2022/05/19 09:10:59;;;;;;;2.50;1.50;;;24.30;45.20;;;;;;5120283;28;20170;-67
2022/05/19 09:13:56;;;;;;;7.78;1.70;;;24.50;44.90;;;;;;5121545;28;20205;-66
2022/05/19 09:16:25;;;;;;;5.07;1.40;;;24.80;45.30;;;;;;5121611;27;20633;-68
2022/05/19 09:19:12;;;;;;;2.75;1.77;;;24.90;45.60;;;;;;5124549;27;20533;-67
2022/05/19 09:21:40;;;;;;;1.83;1.42;;;24.90;46.10;;;;;;5125804;27;20199;-65
2022/05/19 09:24:06;;;;;;;2.53;1.60;;;24.90;46.50;;;;;;5124675;27;20177;-68
2022/05/19 09:26:52;;;;;;;4.72;1.90;;;24.90;46.30;;;;;;5124650;27;20185;-67
2022/05/19 09:29:22;;;;;;;4.72;1.50;;;24.80;46.00;;;;;;5124785;27;20230;-68
2022/05/19 09:32:03;;;;;;;1.60;1.50;;;24.60;45.50;;;;;;5126451;27;20177;-67
2022/05/19 09:34:30;;;;;;;2.53;1.45;;;24.70;46.10;;;;;;5128288;27;20165;-67
2022/05/19 09:37:12;;;;;;;2.50;1.50;;;24.80;45.30;;;;;;5127690;27;20313;-66
2022/05/19 09:40:12;;;;;;;3.95;1.55;;;25.00;45.40;;;;;;5128925;27;20185;-67
2022/05/19 09:42:53;;;;;;;2.33;1.50;;;25.30;45.40;;;;;;5120376;27;20350;-66
2022/05/19 09:45:27;;;;;;;1.90;1.60;;;25.30;44.70;;;;;;5128734;27;20687;-66
2022/05/19 09:48:00;;;;;;;2.67;1.65;;;25.30;44.70;;;;;;5132372;27;20184;-68
2022/05/19 09:50:29;;;;;;;3.10;1.92;;;25.30;44.40;;;;;;5150233;27;20227;-67
2022/05/19 09:53:07;;;;;;;1.98;1.58;;;25.30;44.30;;;;;;5131466;27;20311;-68
2022/05/19 09:55:41;;;;;;;1.75;1.50;;;25.50;44.40;;;;;;5138848;27;20616;-66
2022/05/19 09:58:09;;;;;;;3.00;1.60;;;25.80;44.20;;;;;;5133428;27;20198;-70
2022/05/19 10:00:58;;;;;;;3.20;1.40;;;25.30;43.20;;;;;;5127890;27;20177;-66
2022/05/19 10:03:36;;;;;;;3.95;2.03;;;25.40;43.20;;;;;;5124723;27;20243;-68
2022/05/19 10:06:18;;;;;;;4.22;1.83;;;25.60;43.00;;;;;;5125478;27;20236;-66
2022/05/19 10:08:45;;;;;;;2.55;1.40;;;25.60;42.90;;;;;;5128756;27;20173;-68
2022/05/19 10:11:21;;;;;;;1.95;1.65;;;25.50;42.30;;;;;;5126688;27;20181;-69
2022/05/19 10:13:51;;;;;;;2.35;1.40;;;25.30;41.60;;;;;;5124849;27;20194;-64
2022/05/19 10:16:25;;;;;;;4.07;1.60;;;25.00;41.60;;;;;;5124202;27;20228;-64
2022/05/19 10:19:12;;;;;;;3.03;1.50;;;25.30;41.80;;;;;;5125005;27;20187;-66
2022/05/19 10:21:55;;;;;;;1.60;1.40;;;25.10;40.90;;;;;;5124217;27;20570;-66
2022/05/19 10:24:53;;;;;;;2.65;1.42;;;25.20;40.70;;;;;;5123103;27;20178;-66
2022/05/19 10:33:42;;;;;;;3.22;1.42;;;25.90;40.30;;;;;;5124455;27;20225;-65
2022/05/19 10:36:22;;;;;;;4.45;1.58;;;25.80;39.30;;;;;;5122589;27;20212;-66
2022/05/19 10:39:14;;;;;;;1.30;1.20;;;25.60;38.50;;;;;;5124996;27;20699;-69
2022/05/19 10:42:10;;;;;;;3.50;1.60;;;25.70;38.60;;;;;;5123845;27;20174;-67
2022/05/19 10:44:50;;;;;;;2.60;1.63;;;25.90;38.70;;;;;;5122722;27;20177;-65
2022/05/19 10:47:33;;;;;;;3.67;1.50;;;25.90;37.90;;;;;;5124732;27;20185;-66
2022/05/19 10:50:21;;;;;;;1.58;1.27;;;25.60;37.80;;;;;;5123398;27;20188;-65
2022/05/19 10:53:18;;;;;;;2.40;1.63;;;25.70;37.60;;;;;;5138897;27;20178;-65
2022/05/19 10:56:04;;;;;;;1.65;1.30;;;26.10;37.70;;;;;;5122857;27;20185;-65
2022/05/19 10:58:54;;;;;;;2.30;1.75;;;26.00;37.10;;;;;;5140398;27;20248;-66
2022/05/19 11:01:38;;;;;;;2.22;1.70;;;26.20;36.90;;;;;;5127867;27;20177;-68
2022/05/19 11:04:39;;;;;;;3.65;1.60;;;26.10;35.90;;;;;;5123326;27;20177;-65
2022/05/19 11:07:21;;;;;;;2.78;1.15;;;26.10;35.80;;;;;;5123577;27;20220;-67
2022/05/19 11:09:59;;;;;;;3.42;1.55;;;26.30;35.80;;;;;;5123530;27;20184;-65
2022/05/19 11:12:36;;;;;;;1.60;1.45;;;26.40;35.40;;;;;;5122712;27;20205;-66
2022/05/19 11:15:36;;;;;;;1.92;1.48;;;26.30;34.10;;;;;;5123404;27;20177;-67
2022/05/19 11:18:06;;;;;;;2.60;1.50;;;26.20;33.70;;;;;;5123588;27;20572;-70
2022/05/19 11:20:45;;;;;;;3.30;1.50;;;26.30;33.80;;;;;;5122586;27;20179;-66
2022/05/19 11:23:22;;;;;;;3.08;1.30;;;26.30;33.20;;;;;;5122923;27;20208;-64
2022/05/19 11:29:06;;;;;;;1.80;1.35;;;26.50;32.10;;;;;;5090310;28;20186;-65
2022/05/19 11:31:59;;;;;;;3.65;1.23;;;26.50;31.50;;;;;;5090088;28;20218;-65
2022/05/19 11:34:37;;;;;;;4.13;1.20;;;26.60;31.60;;;;;;5052372;28;20202;-67
2022/05/19 11:37:31;;;;;;;2.38;1.48;;;26.70;31.20;;;;;;5089597;28;20704;-66
2022/05/19 11:40:09;;;;;;;1.92;1.40;;;26.60;31.20;;;;;;5087334;28;20262;-66
2022/05/19 11:42:54;;;;;;;3.10;1.30;;;26.40;30.70;;;;;;5063943;28;20661;-66
2022/05/19 11:45:49;;;;;;;3.00;1.30;;;26.70;31.30;;;;;;5088972;28;20235;-65
2022/05/19 11:55:13;;;;;;;3.25;1.70;;;27.10;31.80;;;;;;5101338;28;20194;-66
2022/05/19 11:57:56;;;;;;;1.92;1.52;;;27.20;31.20;;;;;;5076260;28;20363;-66
2022/05/19 12:00:26;;;;;;;2.55;1.50;;;27.10;31.10;;;;;;5088975;28;20609;-66
2022/05/19 12:02:58;;;;;;;1.80;1.30;;;27.00;32.20;;;;;;5102422;27;20190;-69
2022/05/19 12:05:43;;;;;;;3.45;1.55;;;27.10;32.30;;;;;;5137744;27;20644;-67
2022/05/19 12:08:23;;;;;;;1.88;1.30;;;26.80;31.80;;;;;;5122048;27;20205;-67
2022/05/19 12:10:53;;;;;;;1.45;1.30;;;26.90;32.30;;;;;;5122143;27;20186;-65
2022/05/19 12:13:30;;;;;;;1.20;1.10;;;27.00;32.00;;;;;;5122612;27;20180;-66
2022/05/19 12:16:06;;;;;;;3.90;1.40;;;27.10;32.10;;;;;;5105946;27;20169;-66
2022/05/19 12:18:31;;;;;;;1.90;1.40;;;27.60;32.80;;;;;;5120436;27;20203;-67
2022/05/19 12:21:00;;;;;;;3.58;1.35;;;27.60;31.90;;;;;;5122990;27;20169;-67
2022/05/19 12:23:34;;;;;;;2.00;1.42;;;27.50;31.60;;;;;;5123074;27;20267;-66
2022/05/19 12:26:11;;;;;;;1.50;1.40;;;27.30;31.30;;;;;;5123861;27;20181;-66
2022/05/19 12:28:57;;;;;;;4.90;1.48;;;27.60;31.50;;;;;;5120790;27;20180;-66
2022/05/19 12:34:32;;;;;;;2.70;1.33;;;27.50;31.80;;;;;;5120946;27;20279;-69
2022/05/19 12:37:13;;;;;;;4.30;1.60;;;27.40;32.60;;;;;;5122930;27;20239;-67
2022/05/19 12:39:43;;;;;;;3.40;1.70;;;27.70;32.80;;;;;;5122454;27;20234;-68
2022/05/19 12:42:32;;;;;;;1.80;1.65;;;27.40;32.60;;;;;;5120305;27;20176;-68
2022/05/19 12:44:59;;;;;;;3.03;2.22;;;27.80;33.70;;;;;;5124707;27;20277;-68
2022/05/19 12:47:32;;;;;;;1.27;1.17;;;27.60;34.50;;;;;;5134813;27;20153;-66
2022/05/19 12:50:01;;;;;;;2.83;1.65;;;27.20;33.80;;;;;;5135533;27;20347;-67
2022/05/19 12:53:05;;;;;;;3.58;1.30;;;27.00;34.50;;;;;;5120653;27;20531;-66
2022/05/19 12:55:37;;;;;;;2.22;1.50;;;26.80;34.70;;;;;;5147565;27;20180;-70
2022/05/19 12:58:37;;;;;;;1.58;1.48;;;26.90;34.90;;;;;;5116885;28;20261;-66
2022/05/19 13:01:12;;;;;;;3.05;1.80;;;27.00;35.10;;;;;;5116963;28;20249;-66
2022/05/19 13:03:40;;;;;;;1.40;1.30;;;26.60;35.20;;;;;;5120709;28;20187;-66
2022/05/19 13:06:06;;;;;;;2.40;1.40;;;26.70;35.40;;;;;;5115438;28;20699;-66
2022/05/19 13:08:33;;;;;;;1.40;1.30;;;26.90;35.90;;;;;;5137543;28;20240;-67
2022/05/19 13:11:03;;;;;;;2.30;1.40;;;27.00;36.10;;;;;;5130938;28;20265;-66
2022/05/19 13:13:47;;;;;;;2.05;1.40;;;27.20;35.90;;;;;;5129731;28;20291;-65
2022/05/19 13:16:31;;;;;;;1.60;1.50;;;27.40;35.50;;;;;;5134880;28;20269;-67
2022/05/19 13:19:04;;;;;;;2.10;1.40;;;27.60;35.40;;;;;;5116278;28;20268;-69
2022/05/19 13:21:40;;;;;;;2.58;1.60;;;27.50;35.10;;;;;;5119801;28;20154;-69
2022/05/19 13:24:10;;;;;;;2.35;1.77;;;27.70;34.80;;;;;;5119792;28;20184;-66
2022/05/19 13:26:43;;;;;;;4.85;1.85;;;27.80;34.40;;;;;;5119370;28;20155;-68
2022/05/19 13:32:04;;;;;;;1.55;1.27;;;27.60;34.40;;;;;;5120884;28;20546;-69
2022/05/19 13:34:46;;;;;;;2.33;1.50;;;27.40;35.00;;;;;;5119011;28;20178;-66
2022/05/19 13:37:13;;;;;;;1.50;1.38;;;27.50;34.90;;;;;;5119733;28;20259;-66
2022/05/19 13:39:39;;;;;;;4.13;1.63;;;27.60;35.10;;;;;;5117232;28;20174;-66
2022/05/19 13:42:10;;;;;;;3.03;1.60;;;27.60;35.10;;;;;;5117569;28;20159;-66